Candor, North Carolina
Current Conditions -  °F | °C
As of 9:15 AM on Saturday 22 Nov 2014 (Local Time) from KSOP Reporting Station
Clear Clear  
Wind Chill:   Ceiling: Unl
Heat Index:   Visibility: 10mi
Dew Point: -9°   Wind: 3mph
Humidity: 44%   Direction: 100°E
Pressure: 30.57"   Gusts: NA
Location:  35.3°N, 79.75°W
Report Text: KSOP 221415Z AUTO 10003KT 10SM CLR 02/M09 A3057 RMK AO1
Loading
Personal Weather Stations






























Interactive Weather Map New forecast layout! Learn more

10-Day Weather Forecast

Advertisements
Track Severe Weather on mobile